createdAt,value
2023-04-15T00:00:38.519Z,99204.91
2023-04-15T00:03:41.639Z,99206.56
2023-04-15T00:06:51.677Z,99203.72
2023-04-15T00:09:56.378Z,99202.94
2023-04-15T00:12:59.253Z,99200.19
2023-04-15T00:16:02.419Z,99201.69
2023-04-15T00:19:05.248Z,99200.56
2023-04-15T00:22:08.488Z,99208.47
2023-04-15T00:25:11.656Z,99194.63
2023-04-15T00:28:14.390Z,99202.25
2023-04-15T00:31:18.735Z,99192.47
2023-04-15T00:34:22.253Z,99196.66
2023-04-15T00:37:25.004Z,99193.78
2023-04-15T00:40:28.030Z,99198.13
2023-04-15T00:43:30.759Z,99200.22
2023-04-15T00:46:36.425Z,99197.84
2023-04-15T00:49:39.256Z,99199.59
2023-04-15T00:52:42.075Z,99206.06
2023-04-15T00:55:45.471Z,99207.03
2023-04-15T00:58:48.516Z,99207.81
2023-04-15T01:01:52.514Z,99206.72
2023-04-15T01:04:56.913Z,99203.22
2023-04-15T01:07:59.737Z,99213.19
2023-04-15T01:11:03.861Z,99215.13
2023-04-15T01:14:07.540Z,99218.50
2023-04-15T01:17:10.366Z,99224.63
2023-04-15T01:20:13.490Z,99228.03
2023-04-15T01:23:17.565Z,99227.53
2023-04-15T01:26:20.569Z,99227.88
2023-04-15T01:29:23.957Z,99221.41
2023-04-15T01:32:27.346Z,99222.84
2023-04-15T01:35:30.135Z,99230.28
2023-04-15T01:38:33.579Z,99230.28
2023-04-15T01:41:36.589Z,99235.91
2023-04-15T01:44:39.360Z,99229.97
2023-04-15T01:47:42.158Z,99231.25
2023-04-15T01:50:46.575Z,99234.00
2023-04-15T01:53:50.454Z,99237.19
2023-04-15T01:56:53.732Z,99236.22
2023-04-15T01:59:56.814Z,99239.63
2023-04-15T02:02:59.827Z,99238.03
2023-04-15T02:06:02.616Z,99235.91
2023-04-15T02:09:05.308Z,99238.47
2023-04-15T02:12:08.075Z,99239.25
2023-04-15T02:15:11.226Z,99237.69
2023-04-15T02:18:14.032Z,99235.09
2023-04-15T02:21:20.492Z,99239.59
2023-04-15T02:24:23.150Z,99234.13
2023-04-15T02:27:26.281Z,99233.16
2023-04-15T02:30:29.112Z,99239.72
2023-04-15T02:33:32.523Z,99238.25
2023-04-15T02:36:36.648Z,99239.03
2023-04-15T02:39:41.302Z,99235.59
2023-04-15T02:42:44.707Z,99237.91
2023-04-15T02:45:50.223Z,99227.94
2023-04-15T02:48:54.040Z,99238.09
2023-04-15T02:52:00.230Z,99236.66
2023-04-15T02:55:04.516Z,99240.34
2023-04-15T02:58:07.330Z,99241.50
2023-04-15T03:01:10.109Z,99243.25
2023-04-15T03:04:13.918Z,99239.00
2023-04-15T03:07:18.448Z,99240.59
2023-04-15T03:10:21.959Z,99238.31
2023-04-15T03:13:25.067Z,99236.34
2023-04-15T03:16:29.333Z,99233.91
2023-04-15T03:19:33.692Z,99237.94
2023-04-15T03:22:36.884Z,99234.03
2023-04-15T03:25:40.604Z,99241.63
2023-04-15T03:28:43.859Z,99244.19
2023-04-15T03:31:49.834Z,99250.00
2023-04-15T03:34:52.936Z,99247.28
2023-04-15T03:37:55.785Z,99243.97
2023-04-15T03:40:58.482Z,99240.41
2023-04-15T03:44:01.304Z,99238.81
2023-04-15T03:47:04.033Z,99237.19
2023-04-15T03:50:07.513Z,99241.47
2023-04-15T03:53:10.217Z,99238.59
2023-04-15T03:56:12.955Z,99229.06
2023-04-15T03:59:15.963Z,99232.41
2023-04-15T04:02:18.858Z,99230.06
2023-04-15T04:05:21.750Z,99233.78
2023-04-15T04:08:24.579Z,99233.66
2023-04-15T04:11:28.316Z,99239.66
2023-04-15T04:14:31.145Z,99243.50
2023-04-15T04:17:34.501Z,99248.72
2023-04-15T04:20:37.401Z,99241.84
2023-04-15T04:23:40.291Z,99246.50
2023-04-15T04:26:43.062Z,99240.72
2023-04-15T04:29:47.957Z,99240.00
2023-04-15T04:32:51.792Z,99256.22
2023-04-15T04:35:54.560Z,99254.91
2023-04-15T04:38:57.809Z,99251.56
2023-04-15T04:42:01.552Z,99251.41
2023-04-15T04:45:04.655Z,99249.28
2023-04-15T04:48:08.769Z,99253.97
2023-04-15T04:51:11.696Z,99262.72
2023-04-15T04:54:14.733Z,99262.09
2023-04-15T04:57:17.411Z,99261.41
2023-04-15T05:00:20.557Z,99260.59
2023-04-15T05:03:23.496Z,99262.56
2023-04-15T05:06:26.551Z,99263.53
2023-04-15T05:09:32.552Z,99275.34
2023-04-15T05:12:36.226Z,99274.41
2023-04-15T05:15:41.408Z,99278.28
2023-04-15T05:18:44.382Z,99281.75
2023-04-15T05:21:47.267Z,99282.59
2023-04-15T05:24:50.289Z,99280.00
2023-04-15T05:27:53.074Z,99273.97
2023-04-15T05:30:56.396Z,99272.19
2023-04-15T05:33:59.378Z,99277.75
2023-04-15T05:37:02.464Z,99289.78
2023-04-15T05:40:05.585Z,99285.97
2023-04-15T05:43:08.717Z,99285.66
2023-04-15T05:46:11.520Z,99286.53
2023-04-15T05:49:14.323Z,99284.59
2023-04-15T05:52:17.114Z,99290.31
2023-04-15T05:55:19.926Z,99293.13
2023-04-15T05:58:22.723Z,99286.53
2023-04-15T06:01:26.249Z,99296.41
2023-04-15T06:04:29.276Z,99299.22
2023-04-15T06:07:32.156Z,99301.84
2023-04-15T06:10:36.962Z,99303.38
2023-04-15T06:13:39.718Z,99307.41
2023-04-15T06:16:42.637Z,99310.84
2023-04-15T06:19:45.491Z,99304.59
2023-04-15T06:22:48.508Z,99306.53
2023-04-15T06:25:51.689Z,99318.59
2023-04-15T06:28:54.676Z,99318.84
2023-04-15T06:31:57.540Z,99322.19
2023-04-15T06:35:00.389Z,99315.31
2023-04-15T06:38:03.109Z,99323.78
2023-04-15T06:41:06.014Z,99315.66
2023-04-15T06:44:08.977Z,99309.75
2023-04-15T06:47:13.282Z,99298.13
2023-04-15T06:50:16.117Z,99293.09
2023-04-15T06:53:19.074Z,99295.25
2023-04-15T06:56:23.424Z,99303.09
2023-04-15T06:59:27.422Z,99306.44
2023-04-15T07:02:30.412Z,99310.97
2023-04-15T07:05:33.689Z,99313.88
2023-04-15T07:08:36.880Z,99311.88
2023-04-15T07:11:39.617Z,99315.44
2023-04-15T07:14:42.688Z,99307.91
2023-04-15T07:17:45.529Z,99326.56
2023-04-15T07:20:48.947Z,99325.94
2023-04-15T07:23:52.114Z,99322.59
2023-04-15T07:26:59.438Z,99331.31
2023-04-15T07:30:03.733Z,99338.41
2023-04-15T07:33:07.093Z,99338.50
2023-04-15T07:36:10.648Z,99340.25
2023-04-15T07:39:13.814Z,99339.50
2023-04-15T07:42:17.080Z,99342.19
2023-04-15T07:45:20.198Z,99345.97
2023-04-15T07:48:22.967Z,99350.66
2023-04-15T07:51:26.521Z,99350.28
2023-04-15T07:54:29.420Z,99359.84
2023-04-15T07:57:32.137Z,99362.16
2023-04-15T08:00:34.899Z,99361.13
2023-04-15T08:03:37.879Z,99355.03
2023-04-15T08:06:40.791Z,99368.69
2023-04-15T08:09:43.605Z,99381.69
2023-04-15T08:12:49.440Z,99382.91
2023-04-15T08:16:14.604Z,99373.59
2023-04-15T08:19:17.786Z,99375.91
2023-04-15T08:22:21.350Z,99372.00
2023-04-15T08:25:25.100Z,99379.47
2023-04-15T08:28:27.850Z,99373.97
2023-04-15T08:31:30.876Z,99381.47
2023-04-15T08:34:34.921Z,99387.34
2023-04-15T08:37:37.681Z,99374.84
2023-04-15T08:40:45.094Z,99385.81
2023-04-15T08:43:57.636Z,99394.09
2023-04-15T08:47:04.157Z,99389.63
2023-04-15T08:50:09.656Z,99398.19
2023-04-15T08:53:12.499Z,99402.88
2023-04-15T08:56:19.162Z,99401.03
2023-04-15T08:59:22.286Z,99409.47
2023-04-15T09:02:27.472Z,99402.94
2023-04-15T09:05:33.714Z,99414.34
2023-04-15T09:08:36.522Z,99412.63
2023-04-15T09:11:39.769Z,99411.19
2023-04-15T09:14:43.719Z,99406.97
2023-04-15T09:17:46.908Z,99416.56
2023-04-15T09:20:53.858Z,99412.19
2023-04-15T09:24:01.999Z,99416.59
2023-04-15T09:27:05.641Z,99428.38
2023-04-15T09:30:09.644Z,99427.41
2023-04-15T09:33:14.908Z,99427.38
2023-04-15T09:36:18.213Z,99437.16
2023-04-15T09:39:21.567Z,99431.81
2023-04-15T09:42:24.746Z,99430.59
2023-04-15T09:45:29.643Z,99432.00
2023-04-15T09:48:32.739Z,99431.19
2023-04-15T09:51:35.915Z,99435.97
2023-04-15T09:54:39.376Z,99429.97
2023-04-15T09:57:42.533Z,99439.13
2023-04-15T10:00:47.731Z,99433.13
2023-04-15T10:03:51.673Z,99432.19
2023-04-15T10:06:54.688Z,99431.63
2023-04-15T10:10:00.088Z,99433.97
2023-04-15T10:13:02.908Z,99431.81
2023-04-15T10:16:06.737Z,99425.38
2023-04-15T10:19:11.333Z,99425.75
2023-04-15T10:22:15.630Z,99418.69
2023-04-15T10:25:19.277Z,99415.66
2023-04-15T10:28:25.183Z,99410.47
2023-04-15T10:31:29.200Z,99409.03
2023-04-15T10:34:32.880Z,99409.56
2023-04-15T10:37:37.717Z,99415.03
2023-04-15T10:40:40.577Z,99403.84
2023-04-15T10:44:04.358Z,99407.34
2023-04-15T10:47:12.795Z,99403.63
2023-04-15T10:50:15.634Z,99407.06
2023-04-15T10:53:28.338Z,99410.06
2023-04-15T10:56:31.808Z,99409.19
2023-04-15T10:59:39.073Z,99411.31
2023-04-15T11:02:53.841Z,99415.69
2023-04-15T11:05:57.143Z,99419.53
2023-04-15T11:09:02.877Z,99419.19
2023-04-15T11:12:10.624Z,99420.38
2023-04-15T11:15:39.058Z,99412.06
2023-04-15T11:18:41.909Z,99406.47
2023-04-15T11:21:44.632Z,99413.38
2023-04-15T11:24:50.692Z,99410.13
2023-04-15T11:27:54.738Z,99421.28
2023-04-15T11:30:58.807Z,99406.94
2023-04-15T11:34:03.055Z,99424.00
2023-04-15T11:37:07.981Z,99414.59
2023-04-15T11:40:12.973Z,99412.47
2023-04-15T11:43:21.207Z,99405.31
2023-04-15T11:46:32.539Z,99401.53
2023-04-15T11:49:38.479Z,99411.28
2023-04-15T11:52:41.249Z,99409.97
2023-04-15T11:55:45.628Z,99410.00
2023-04-15T11:58:51.007Z,99413.44
2023-04-15T12:01:54.233Z,99410.78
2023-04-15T12:05:05.314Z,99408.03
2023-04-15T12:08:08.252Z,99412.00
2023-04-15T12:11:11.190Z,99426.59
2023-04-15T12:14:28.606Z,99411.69
2023-04-15T12:17:31.780Z,99409.00
2023-04-15T12:20:54.777Z,99412.47
2023-04-15T12:24:02.445Z,99416.00
2023-04-15T12:27:07.555Z,99408.50
2023-04-15T12:30:11.820Z,99412.44
2023-04-15T12:33:14.865Z,99410.91
2023-04-15T12:36:17.840Z,99415.81
2023-04-15T12:39:30.448Z,99414.28
2023-04-15T12:42:33.663Z,99416.69
2023-04-15T12:45:36.792Z,99432.47
2023-04-15T12:48:40.715Z,99429.19
2023-04-15T12:51:43.617Z,99428.28
2023-04-15T12:54:46.413Z,99421.69
2023-04-15T12:57:49.451Z,99428.44
2023-04-15T13:00:52.173Z,99430.75
2023-04-15T13:03:55.006Z,99424.28
2023-04-15T13:06:57.795Z,99420.00
2023-04-15T13:10:00.643Z,99414.09
2023-04-15T13:13:03.631Z,99414.41
2023-04-15T13:16:06.784Z,99427.41
2023-04-15T13:19:09.792Z,99418.41
2023-04-15T13:22:12.778Z,99419.59
2023-04-15T13:25:15.701Z,99428.56
2023-04-15T13:28:18.496Z,99425.50
2023-04-15T13:31:21.577Z,99427.31
2023-04-15T13:34:24.500Z,99428.00
2023-04-15T13:37:28.313Z,99422.56
2023-04-15T13:40:31.945Z,99424.22
2023-04-15T13:43:34.818Z,99421.25
2023-04-15T13:46:39.665Z,99420.22
2023-04-15T13:49:42.903Z,99416.19
2023-04-15T13:52:46.138Z,99418.38
2023-04-15T13:55:50.232Z,99428.81
2023-04-15T13:58:54.900Z,99419.91
2023-04-15T14:01:57.717Z,99421.13
2023-04-15T14:05:00.921Z,99428.16
2023-04-15T14:08:03.934Z,99430.31
2023-04-15T14:11:06.883Z,99430.41
2023-04-15T14:14:09.663Z,99433.59
2023-04-15T14:17:12.478Z,99434.34
2023-04-15T14:20:17.221Z,99432.28
2023-04-15T14:23:20.179Z,99432.16
2023-04-15T14:26:23.029Z,99428.69
2023-04-15T14:29:26.322Z,99427.25
2023-04-15T14:32:29.057Z,99424.84
2023-04-15T14:35:31.817Z,99424.94
2023-04-15T14:38:39.890Z,99438.19
2023-04-15T14:41:43.092Z,99430.84
2023-04-15T14:44:46.481Z,99442.31
2023-04-15T14:47:49.329Z,99438.22
2023-04-15T14:50:52.709Z,99448.53
2023-04-15T14:53:55.563Z,99447.09
2023-04-15T14:56:58.920Z,99449.69
2023-04-15T15:00:02.060Z,99447.97
2023-04-15T15:03:12.657Z,99450.31
2023-04-15T15:06:17.223Z,99444.19
2023-04-15T15:09:22.246Z,99444.66
2023-04-15T15:12:25.096Z,99450.91
2023-04-15T15:15:29.317Z,99449.88
2023-04-15T15:18:32.188Z,99451.72
2023-04-15T15:21:35.073Z,99458.69
2023-04-15T15:24:37.920Z,99458.84
2023-04-15T15:27:40.737Z,99455.63
2023-04-15T15:30:43.726Z,99455.53
2023-04-15T15:33:46.808Z,99453.06
2023-04-15T15:36:49.630Z,99455.00
2023-04-15T15:39:53.393Z,99449.38
2023-04-15T15:42:56.054Z,99453.72
2023-04-15T15:45:58.789Z,99457.91
2023-04-15T15:49:03.726Z,99462.84
2023-04-15T15:52:06.764Z,99460.81
2023-04-15T15:55:09.754Z,99481.34
2023-04-15T15:58:12.612Z,99477.59
2023-04-15T16:01:15.495Z,99475.53
2023-04-15T16:04:18.597Z,99474.69
2023-04-15T16:07:21.510Z,99485.59
2023-04-15T16:10:24.294Z,99483.13
2023-04-15T16:13:28.075Z,99486.38
2023-04-15T16:16:31.091Z,99490.41
2023-04-15T16:19:33.804Z,99491.59
2023-04-15T16:22:36.789Z,99492.09
2023-04-15T16:25:39.814Z,99488.50
2023-04-15T16:28:43.004Z,99491.72
2023-04-15T16:31:48.315Z,99487.63
2023-04-15T16:34:52.734Z,99497.81
2023-04-15T16:37:55.678Z,99509.66
2023-04-15T16:41:00.482Z,99523.16
2023-04-15T16:44:04.188Z,99537.38
2023-04-15T16:47:09.100Z,99525.50
2023-04-15T16:50:12.094Z,99537.59
2023-04-15T16:53:16.154Z,99544.63
2023-04-15T16:56:19.419Z,99538.50
2023-04-15T16:59:22.200Z,99565.41
2023-04-15T17:02:25.243Z,99576.06
2023-04-15T17:05:28.144Z,99581.47
2023-04-15T17:08:31.144Z,99594.50
2023-04-15T17:11:35.244Z,99613.78
2023-04-15T17:14:39.044Z,99624.28
2023-04-15T17:17:41.795Z,99659.69
2023-04-15T17:20:44.680Z,99687.75
2023-04-15T17:23:47.380Z,99710.09
2023-04-15T17:26:50.121Z,99725.91
2023-04-15T17:29:53.112Z,99733.78
2023-04-15T17:32:56.587Z,99706.56
2023-04-15T17:35:59.413Z,99716.31
2023-04-15T17:39:02.168Z,99729.38
2023-04-15T17:42:07.434Z,99731.69
2023-04-15T17:45:10.692Z,99731.38
2023-04-15T17:48:14.583Z,99725.38
2023-04-15T17:51:17.505Z,99699.50
2023-04-15T17:54:20.633Z,99664.38
2023-04-15T17:57:25.259Z,99646.41
2023-04-15T18:00:28.266Z,99636.16
2023-04-15T18:03:31.407Z,99643.81
2023-04-15T18:06:34.890Z,99642.03
2023-04-15T18:09:37.867Z,99653.19
2023-04-15T18:12:40.656Z,99662.78
2023-04-15T18:15:45.583Z,99672.50
2023-04-15T18:18:49.676Z,99676.19
2023-04-15T18:21:52.548Z,99680.50
2023-04-15T18:24:57.855Z,99680.50
2023-04-15T18:28:00.847Z,99683.25
2023-04-15T18:31:04.036Z,99690.75
2023-04-15T18:34:08.668Z,99699.09
2023-04-15T18:37:12.060Z,99696.34
2023-04-15T18:40:16.356Z,99702.50
2023-04-15T18:43:19.771Z,99712.81
2023-04-15T18:46:22.956Z,99719.00
2023-04-15T18:49:27.493Z,99735.88
2023-04-15T18:52:31.318Z,99735.53
2023-04-15T18:55:34.781Z,99733.56
2023-04-15T18:59:09.337Z,99736.78
2023-04-15T19:02:02.389Z,99734.44
2023-04-15T19:05:05.822Z,99710.94
2023-04-15T19:08:08.889Z,99718.91
2023-04-15T19:11:11.702Z,99731.47
2023-04-15T19:14:14.716Z,99742.56
2023-04-15T19:17:17.731Z,99732.47
2023-04-15T19:20:20.956Z,99721.78
2023-04-15T19:23:24.140Z,99723.09
2023-04-15T19:26:27.242Z,99722.63
2023-04-15T19:29:30.667Z,99722.38
2023-04-15T19:32:33.646Z,99730.56
2023-04-15T19:35:38.428Z,99729.19
2023-04-15T19:38:41.512Z,99727.16
2023-04-15T19:41:44.941Z,99727.84
2023-04-15T19:44:47.722Z,99732.16
2023-04-15T19:47:51.005Z,99733.47
2023-04-15T19:50:54.080Z,99738.16
2023-04-15T19:53:57.158Z,99736.19
2023-04-15T19:57:00.215Z,99736.53
2023-04-15T20:00:03.839Z,99728.00
2023-04-15T20:03:09.189Z,99732.47
2023-04-15T20:06:12.712Z,99729.75
2023-04-15T20:09:16.028Z,99734.59
2023-04-15T20:12:50.107Z,99730.31
2023-04-15T20:15:42.639Z,99733.47
2023-04-15T20:18:46.045Z,99732.28
2023-04-15T20:21:51.351Z,99733.88
2023-04-15T20:24:55.701Z,99728.69
2023-04-15T20:28:00.881Z,99732.09
2023-04-15T20:31:03.836Z,99739.56
2023-04-15T20:34:07.185Z,99736.16
2023-04-15T20:37:12.480Z,99737.78
2023-04-15T20:40:16.131Z,99740.78
2023-04-15T20:43:19.599Z,99730.97
2023-04-15T20:46:23.543Z,99749.00
2023-04-15T20:49:28.679Z,99750.56
2023-04-15T20:52:31.749Z,99763.28
2023-04-15T20:55:34.532Z,99759.09
2023-04-15T20:58:38.714Z,99760.41
2023-04-15T21:01:41.568Z,99758.31
2023-04-15T21:04:44.387Z,99775.44
2023-04-15T21:07:47.340Z,99767.56
2023-04-15T21:10:50.029Z,99767.03
2023-04-15T21:13:52.830Z,99769.28
2023-04-15T21:16:58.385Z,99773.47
2023-04-15T21:20:01.947Z,99777.16
2023-04-15T21:23:04.661Z,99774.25
2023-04-15T21:26:07.427Z,99782.19
2023-04-15T21:29:12.339Z,99786.84
2023-04-15T21:32:15.302Z,99789.47
2023-04-15T21:35:18.075Z,99789.28
2023-04-15T21:38:23.144Z,99788.16
2023-04-15T21:41:26.815Z,99799.13
2023-04-15T21:44:29.743Z,99802.81
2023-04-15T21:47:32.552Z,99798.63
2023-04-15T21:51:01.726Z,99799.19
2023-04-15T21:54:04.540Z,99799.16
2023-04-15T21:57:07.274Z,99799.28
2023-04-15T22:00:11.063Z,99808.47
2023-04-15T22:03:13.839Z,99801.63
2023-04-15T22:06:16.828Z,99807.94
2023-04-15T22:09:19.730Z,99809.41
2023-04-15T22:12:22.594Z,99817.28
2023-04-15T22:15:25.323Z,99821.50
2023-04-15T22:18:28.144Z,99823.03
2023-04-15T22:21:31.929Z,99828.00
2023-04-15T22:24:40.153Z,99828.19
2023-04-15T22:27:43.511Z,99824.78
2023-04-15T22:30:46.239Z,99814.66
2023-04-15T22:33:48.922Z,99818.06
2023-04-15T22:36:52.728Z,99813.72
2023-04-15T22:39:55.668Z,99810.50
2023-04-15T22:42:58.425Z,99810.50
2023-04-15T22:46:01.486Z,99820.19
2023-04-15T22:49:09.326Z,99830.84
2023-04-15T22:52:14.569Z,99824.53
2023-04-15T22:55:26.421Z,99825.78
2023-04-15T22:58:32.168Z,99833.56
2023-04-15T23:01:35.279Z,99831.97
2023-04-15T23:04:38.278Z,99828.69
2023-04-15T23:07:41.237Z,99839.47
2023-04-15T23:10:44.778Z,99831.34
2023-04-15T23:13:47.763Z,99830.69
2023-04-15T23:16:50.504Z,99827.31
2023-04-15T23:19:53.280Z,99819.38
2023-04-15T23:22:56.042Z,99826.56
2023-04-15T23:25:59.104Z,99824.50
2023-04-15T23:29:02.012Z,99831.34
2023-04-15T23:32:05.121Z,99820.97
2023-04-15T23:35:08.268Z,99824.22
2023-04-15T23:38:11.113Z,99828.97
2023-04-15T23:41:13.959Z,99826.38
2023-04-15T23:44:16.980Z,99825.81
2023-04-15T23:47:19.732Z,99824.50
2023-04-15T23:50:22.522Z,99824.91
2023-04-15T23:53:25.279Z,99810.94
2023-04-15T23:56:28.002Z,99824.38
2023-04-15T23:59:30.903Z,99818.75
